createdAt,value
2022-07-28T00:01:00.382Z,20.43
2022-07-28T00:03:28.061Z,20.42
2022-07-28T00:05:57.054Z,20.41
2022-07-28T00:08:24.681Z,20.40
2022-07-28T00:10:52.269Z,20.37
2022-07-28T00:13:19.873Z,20.41
2022-07-28T00:15:47.456Z,20.35
2022-07-28T00:18:15.103Z,20.36
2022-07-28T00:20:42.714Z,20.38
2022-07-28T00:23:11.696Z,20.36
2022-07-28T00:25:39.321Z,20.29
2022-07-28T00:28:06.911Z,20.30
2022-07-28T00:30:34.504Z,20.41
2022-07-28T00:33:02.163Z,20.42
2022-07-28T00:35:32.376Z,20.40
2022-07-28T00:38:01.149Z,20.38
2022-07-28T00:40:44.466Z,20.34
2022-07-28T00:43:12.121Z,20.38
2022-07-28T00:45:39.742Z,20.40
2022-07-28T00:48:07.622Z,20.37
2022-07-28T00:50:35.381Z,20.20
2022-07-28T00:53:03.004Z,20.15
2022-07-28T00:55:33.801Z,19.99
2022-07-28T00:58:21.398Z,19.90
2022-07-28T01:00:49.025Z,19.87
2022-07-28T01:03:16.939Z,19.85
2022-07-28T01:05:53.264Z,19.92
2022-07-28T01:08:28.814Z,19.99
2022-07-28T01:11:05.788Z,20.08
2022-07-28T01:13:41.933Z,20.10
2022-07-28T01:16:10.068Z,20.14
2022-07-28T01:18:44.480Z,20.14
2022-07-28T01:21:14.110Z,20.16
2022-07-28T01:24:10.734Z,20.14
2022-07-28T01:26:57.941Z,20.08
2022-07-28T01:29:37.575Z,20.05
2022-07-28T01:32:10.506Z,19.94
2022-07-28T01:34:42.921Z,20.02
2022-07-28T01:37:13.680Z,19.94
2022-07-28T01:39:44.817Z,19.95
2022-07-28T01:42:14.848Z,19.73
2022-07-28T01:44:45.885Z,19.59
2022-07-28T01:47:15.765Z,19.66
2022-07-28T01:49:46.221Z,19.79
2022-07-28T01:52:15.867Z,19.84
2022-07-28T01:54:46.527Z,19.91
2022-07-28T01:57:17.821Z,19.85
2022-07-28T01:59:46.290Z,19.83
2022-07-28T02:02:18.723Z,19.83
2022-07-28T02:04:48.171Z,19.86
2022-07-28T02:07:18.913Z,19.83
2022-07-28T02:09:47.921Z,19.70
2022-07-28T02:12:19.368Z,19.73
2022-07-28T02:14:49.843Z,19.74
2022-07-28T02:17:22.393Z,19.74
2022-07-28T02:19:51.237Z,19.62
2022-07-28T02:22:19.572Z,19.71
2022-07-28T02:24:48.575Z,19.60
2022-07-28T02:27:22.258Z,19.63
2022-07-28T02:29:52.970Z,19.59
2022-07-28T02:32:28.751Z,19.60
2022-07-28T02:35:01.690Z,19.59
2022-07-28T02:37:35.710Z,19.50
2022-07-28T02:40:05.298Z,19.37
2022-07-28T02:42:36.226Z,19.31
2022-07-28T02:45:07.916Z,19.28
2022-07-28T02:47:44.621Z,19.28
2022-07-28T02:50:15.348Z,19.28
2022-07-28T02:52:44.687Z,19.27
2022-07-28T02:55:15.382Z,19.35
2022-07-28T02:57:45.377Z,19.29
2022-07-28T03:00:14.436Z,19.11
2022-07-28T03:02:46.725Z,19.12
2022-07-28T03:05:15.836Z,19.06
2022-07-28T03:07:50.952Z,19.09
2022-07-28T03:10:32.934Z,19.10
2022-07-28T03:13:03.465Z,19.05
2022-07-28T03:15:31.836Z,18.89
2022-07-28T03:18:01.064Z,18.85
2022-07-28T03:20:29.283Z,18.84
2022-07-28T03:22:58.202Z,18.84
2022-07-28T03:25:31.049Z,18.77
2022-07-28T03:28:00.190Z,18.82
2022-07-28T03:30:32.833Z,18.85
2022-07-28T03:33:03.685Z,18.86
2022-07-28T03:35:33.712Z,18.84
2022-07-28T03:38:06.618Z,18.89
2022-07-28T03:40:36.672Z,18.89
2022-07-28T03:43:07.981Z,18.85
2022-07-28T03:45:36.561Z,18.77
2022-07-28T03:48:09.980Z,18.74
2022-07-28T03:50:37.587Z,18.76
2022-07-28T03:53:11.162Z,18.73
2022-07-28T03:55:38.769Z,18.73
2022-07-28T03:58:06.351Z,18.67
2022-07-28T04:00:34.089Z,18.70
2022-07-28T04:03:01.682Z,18.73
2022-07-28T04:05:30.693Z,18.70
2022-07-28T04:07:58.281Z,18.71
2022-07-28T04:10:26.060Z,18.72
2022-07-28T04:12:55.769Z,18.65
2022-07-28T04:15:24.687Z,18.70
2022-07-28T04:17:53.585Z,18.71
2022-07-28T04:20:22.945Z,18.72
2022-07-28T04:22:52.605Z,18.70
2022-07-28T04:25:21.934Z,18.70
2022-07-28T04:27:49.795Z,18.77
2022-07-28T04:30:19.312Z,18.76
2022-07-28T04:32:47.769Z,18.67
2022-07-28T04:35:17.660Z,18.64
2022-07-28T04:37:46.454Z,18.59
2022-07-28T04:40:15.720Z,18.59
2022-07-28T04:42:44.214Z,18.66
2022-07-28T04:45:12.773Z,18.69
2022-07-28T04:47:41.062Z,18.59
2022-07-28T04:50:11.204Z,18.71
2022-07-28T04:52:39.896Z,18.63
2022-07-28T04:55:08.599Z,18.51
2022-07-28T04:57:37.585Z,18.57
2022-07-28T05:00:13.237Z,18.64
2022-07-28T05:02:41.529Z,18.66
2022-07-28T05:05:10.226Z,18.67
2022-07-28T05:07:38.247Z,18.77
2022-07-28T05:10:07.682Z,18.86
2022-07-28T05:12:36.812Z,18.87
2022-07-28T05:15:04.911Z,18.83
2022-07-28T05:17:32.467Z,18.90
2022-07-28T05:20:00.160Z,18.87
2022-07-28T05:22:27.806Z,18.85
2022-07-28T05:24:55.409Z,18.67
2022-07-28T05:27:22.955Z,18.81
2022-07-28T05:29:52.199Z,18.96
2022-07-28T05:32:19.820Z,18.86
2022-07-28T05:34:47.400Z,18.98
2022-07-28T05:37:14.993Z,19.17
2022-07-28T05:39:42.559Z,19.24
2022-07-28T05:42:10.164Z,19.14
2022-07-28T05:44:38.587Z,19.27
2022-07-28T05:47:07.806Z,19.38
2022-07-28T05:49:35.448Z,19.41
2022-07-28T05:52:03.248Z,19.40
2022-07-28T05:54:30.832Z,19.31
2022-07-28T05:56:58.405Z,19.28
2022-07-28T05:59:26.019Z,19.38
2022-07-28T06:01:53.658Z,19.47
2022-07-28T06:04:28.057Z,19.64
2022-07-28T06:06:56.318Z,19.71
2022-07-28T06:09:24.017Z,19.78
2022-07-28T06:11:51.642Z,19.88
2022-07-28T06:14:19.502Z,19.94
2022-07-28T06:16:50.856Z,19.91
2022-07-28T06:19:19.022Z,19.95
2022-07-28T06:21:48.352Z,20.07
2022-07-28T06:24:16.275Z,20.20
2022-07-28T06:26:45.076Z,20.17
2022-07-28T06:29:12.894Z,20.27
2022-07-28T06:31:40.738Z,20.37
2022-07-28T06:34:08.370Z,20.45
2022-07-28T06:36:35.987Z,20.52
2022-07-28T06:39:05.332Z,20.53
2022-07-28T06:41:33.016Z,20.50
2022-07-28T06:44:00.793Z,20.58
2022-07-28T06:46:29.288Z,20.58
2022-07-28T06:48:56.976Z,20.66
2022-07-28T06:51:25.592Z,20.67
2022-07-28T06:53:53.326Z,20.69
2022-07-28T06:56:22.663Z,20.77
2022-07-28T06:58:51.267Z,20.82
2022-07-28T07:01:18.951Z,20.94
2022-07-28T07:03:46.742Z,21.03
2022-07-28T07:06:14.406Z,21.10
2022-07-28T07:08:42.017Z,21.19
2022-07-28T07:11:09.630Z,21.28
2022-07-28T07:13:38.825Z,21.16
2022-07-28T07:16:06.605Z,21.32
2022-07-28T07:18:34.223Z,21.44
2022-07-28T07:21:01.924Z,21.43
2022-07-28T07:23:29.545Z,21.48
2022-07-28T07:25:57.413Z,21.50
2022-07-28T07:28:25.197Z,21.58
2022-07-28T07:30:54.167Z,21.62
2022-07-28T07:33:21.747Z,21.71
2022-07-28T07:35:49.548Z,21.68
2022-07-28T07:38:17.158Z,21.62
2022-07-28T07:40:44.796Z,21.55
2022-07-28T07:43:12.521Z,21.59
2022-07-28T07:45:41.925Z,21.73
2022-07-28T07:48:11.005Z,21.76
2022-07-28T07:50:39.188Z,21.79
2022-07-28T07:53:06.958Z,21.85
2022-07-28T07:55:37.626Z,21.98
2022-07-28T07:58:05.865Z,22.01
2022-07-28T08:00:33.874Z,22.04
2022-07-28T08:03:01.669Z,22.06
2022-07-28T08:05:35.688Z,22.23
2022-07-28T08:08:05.719Z,22.32
2022-07-28T08:10:33.711Z,22.51
2022-07-28T08:13:01.864Z,22.64
2022-07-28T08:15:29.682Z,22.71
2022-07-28T08:17:57.671Z,22.76
2022-07-28T08:20:25.287Z,22.87
2022-07-28T08:22:56.156Z,23.01
2022-07-28T08:25:24.660Z,23.06
2022-07-28T08:27:52.553Z,22.96
2022-07-28T08:30:23.029Z,22.96
2022-07-28T08:32:56.925Z,23.07
2022-07-28T08:35:34.719Z,23.08
2022-07-28T08:38:06.192Z,23.25
2022-07-28T08:40:35.555Z,23.41
2022-07-28T08:43:10.320Z,23.43
2022-07-28T08:45:40.366Z,23.51
2022-07-28T08:48:12.076Z,23.58
2022-07-28T08:50:40.080Z,23.72
2022-07-28T08:53:09.488Z,23.89
2022-07-28T08:55:37.792Z,23.97
2022-07-28T08:58:05.976Z,24.04
2022-07-28T09:00:33.964Z,24.13
2022-07-28T09:03:04.469Z,24.08
2022-07-28T09:05:33.086Z,24.10
2022-07-28T09:08:01.064Z,24.14
2022-07-28T09:10:30.250Z,24.27
2022-07-28T09:12:57.909Z,24.48
2022-07-28T09:15:25.521Z,24.45
2022-07-28T09:17:53.136Z,24.67
2022-07-28T09:20:21.181Z,24.79
2022-07-28T09:22:57.759Z,25.03
2022-07-28T09:25:26.227Z,25.07
2022-07-28T09:27:55.895Z,25.12
2022-07-28T09:30:31.292Z,25.23
2022-07-28T09:33:42.428Z,25.32
2022-07-28T09:36:04.294Z,25.37
2022-07-28T09:38:41.780Z,25.47
2022-07-28T09:41:09.468Z,25.65
2022-07-28T09:43:40.072Z,25.88
2022-07-28T09:46:10.043Z,26.11
2022-07-28T09:48:51.164Z,26.34
2022-07-28T09:51:20.368Z,26.38
2022-07-28T09:53:48.047Z,26.38
2022-07-28T09:56:15.801Z,26.46
2022-07-28T09:58:54.362Z,26.72
2022-07-28T10:01:22.705Z,26.94
2022-07-28T10:03:55.801Z,27.04
2022-07-28T10:06:28.900Z,27.08
2022-07-28T10:08:58.201Z,27.18
2022-07-28T10:11:27.766Z,27.36
2022-07-28T10:14:02.914Z,27.19
2022-07-28T10:16:33.641Z,27.48
2022-07-28T10:19:03.317Z,27.74
2022-07-28T10:21:34.536Z,28.03
2022-07-28T10:24:06.935Z,28.28
2022-07-28T10:26:39.614Z,28.46
2022-07-28T10:29:09.383Z,28.61
2022-07-28T10:31:46.641Z,28.71
2022-07-28T10:34:24.668Z,28.82
2022-07-28T10:36:55.399Z,29.01
2022-07-28T10:39:24.850Z,29.14
2022-07-28T10:41:53.504Z,29.28
2022-07-28T10:44:23.111Z,29.27
2022-07-28T10:46:51.526Z,29.41
2022-07-28T10:49:20.081Z,29.47
2022-07-28T10:52:02.402Z,29.48
2022-07-28T10:54:38.081Z,29.67
2022-07-28T10:57:13.035Z,29.82
2022-07-28T11:00:13.188Z,29.87
2022-07-28T11:02:50.175Z,29.95
2022-07-28T11:05:33.344Z,29.97
2022-07-28T11:08:02.448Z,30.09
2022-07-28T11:10:31.381Z,30.30
2022-07-28T11:13:00.611Z,30.39
2022-07-28T11:15:35.076Z,30.59
2022-07-28T11:18:06.829Z,30.69
2022-07-28T11:21:08.561Z,30.87
2022-07-28T11:23:58.366Z,30.91
2022-07-28T11:26:37.352Z,30.76
2022-07-28T11:29:22.066Z,30.61
2022-07-28T11:32:05.391Z,30.79
2022-07-28T11:34:47.730Z,30.83
2022-07-28T11:37:15.546Z,31.07
2022-07-28T11:39:44.252Z,31.47
2022-07-28T11:42:26.686Z,31.56
2022-07-28T11:44:55.327Z,31.74
2022-07-28T11:47:25.680Z,32.00
2022-07-28T11:50:13.035Z,32.23
2022-07-28T11:52:41.484Z,32.49
2022-07-28T11:55:09.334Z,32.75
2022-07-28T11:57:41.218Z,33.00
2022-07-28T12:00:10.139Z,33.43
2022-07-28T12:02:41.718Z,32.96
2022-07-28T12:05:12.982Z,33.18
2022-07-28T12:07:44.138Z,33.48
2022-07-28T12:13:27.499Z,34.07
2022-07-28T12:15:55.259Z,34.32
2022-07-28T12:18:24.884Z,34.18
2022-07-28T12:20:54.505Z,34.53
2022-07-28T12:23:45.445Z,35.06
2022-07-28T12:26:14.261Z,35.62
2022-07-28T12:28:51.270Z,35.73
2022-07-28T12:31:18.934Z,35.82
2022-07-28T12:33:53.615Z,35.75
2022-07-28T12:36:24.051Z,35.58
2022-07-28T12:38:52.285Z,35.90
2022-07-28T12:41:20.516Z,35.81
2022-07-28T12:43:52.222Z,35.60
2022-07-28T12:46:25.141Z,35.62
2022-07-28T12:48:58.797Z,35.43
2022-07-28T12:51:37.105Z,35.62
2022-07-28T12:54:06.528Z,35.31
2022-07-28T12:56:45.544Z,34.25
2022-07-28T12:59:14.073Z,34.64
2022-07-28T13:01:49.750Z,34.87
2022-07-28T13:04:37.729Z,34.71
2022-07-28T13:07:09.549Z,34.74
2022-07-28T13:09:39.550Z,34.83
2022-07-28T13:12:16.293Z,34.75
2022-07-28T13:14:45.281Z,34.54
2022-07-28T13:17:13.554Z,34.34
2022-07-28T13:19:43.472Z,34.49
2022-07-28T13:22:11.080Z,34.60
2022-07-28T13:24:38.729Z,34.35
2022-07-28T13:27:07.129Z,34.23
2022-07-28T13:29:35.984Z,34.12
2022-07-28T13:32:03.775Z,34.06
2022-07-28T13:34:31.545Z,34.08
2022-07-28T13:37:00.793Z,34.14
2022-07-28T13:39:28.438Z,34.17
2022-07-28T13:41:59.110Z,34.36
2022-07-28T13:44:27.691Z,34.11
2022-07-28T13:46:55.751Z,34.97
2022-07-28T13:49:24.115Z,35.60
2022-07-28T13:51:52.087Z,35.75
2022-07-28T13:54:21.401Z,35.90
2022-07-28T13:57:07.288Z,35.41
2022-07-28T13:59:36.293Z,34.91
2022-07-28T14:02:06.246Z,34.65
2022-07-28T14:04:46.169Z,34.23
2022-07-28T14:07:20.940Z,34.18
2022-07-28T14:09:51.333Z,33.88
2022-07-28T14:12:19.110Z,33.71
2022-07-28T14:14:48.382Z,33.79
2022-07-28T14:17:40.128Z,34.79
2022-07-28T14:20:04.969Z,36.03
2022-07-28T14:22:32.697Z,37.06
2022-07-28T14:25:02.964Z,38.18
2022-07-28T14:27:30.603Z,39.74
2022-07-28T14:29:58.249Z,40.93
2022-07-28T14:32:25.872Z,41.74
2022-07-28T14:34:53.581Z,42.34
2022-07-28T14:37:22.433Z,42.17
2022-07-28T14:39:50.146Z,42.55
2022-07-28T14:42:19.099Z,42.81
2022-07-28T14:44:46.761Z,42.63
2022-07-28T14:47:15.244Z,41.37
2022-07-28T14:49:57.451Z,40.30
2022-07-28T14:52:26.308Z,39.25
2022-07-28T14:54:54.018Z,38.89
2022-07-28T14:57:48.020Z,39.94
2022-07-28T15:00:13.822Z,41.15
2022-07-28T15:02:42.309Z,41.86
2022-07-28T15:05:13.545Z,42.30
2022-07-28T15:07:42.225Z,42.10
2022-07-28T15:10:11.200Z,42.71
2022-07-28T15:12:40.277Z,43.63
2022-07-28T15:15:09.161Z,42.53
2022-07-28T15:17:37.486Z,40.57
2022-07-28T15:20:06.729Z,40.00
2022-07-28T15:22:34.711Z,40.11
2022-07-28T15:25:03.916Z,39.37
2022-07-28T15:27:33.801Z,38.41
2022-07-28T15:30:03.470Z,38.17
2022-07-28T15:32:31.672Z,38.23
2022-07-28T15:34:59.643Z,38.21
2022-07-28T15:37:27.830Z,37.68
2022-07-28T15:39:55.551Z,37.22
2022-07-28T15:42:23.176Z,36.89
2022-07-28T15:44:52.669Z,36.35
2022-07-28T15:47:21.640Z,37.37
2022-07-28T15:49:49.349Z,38.28
2022-07-28T15:52:16.969Z,39.75
2022-07-28T15:54:44.608Z,40.45
2022-07-28T15:57:13.805Z,40.13
2022-07-28T15:59:49.244Z,40.21
2022-07-28T16:02:18.343Z,39.38
2022-07-28T16:04:51.240Z,39.00
2022-07-28T16:07:23.350Z,38.41
2022-07-28T16:09:52.271Z,37.50
2022-07-28T16:12:21.736Z,36.44
2022-07-28T16:14:49.629Z,35.94
2022-07-28T16:17:18.235Z,35.63
2022-07-28T16:19:49.353Z,35.61
2022-07-28T16:22:18.079Z,36.23
2022-07-28T16:24:45.772Z,36.48
2022-07-28T16:27:14.572Z,36.79
2022-07-28T16:29:42.276Z,37.07
2022-07-28T16:32:09.988Z,37.43
2022-07-28T16:34:38.126Z,37.91
2022-07-28T16:37:07.290Z,38.26
2022-07-28T16:39:35.297Z,39.20
2022-07-28T16:42:03.247Z,39.41
2022-07-28T16:44:31.228Z,39.34
2022-07-28T16:46:59.374Z,39.74
2022-07-28T16:49:27.135Z,40.18
2022-07-28T16:51:55.398Z,41.10
2022-07-28T16:54:25.261Z,41.81
2022-07-28T16:56:55.278Z,42.11
2022-07-28T16:59:22.996Z,42.01
2022-07-28T17:01:52.079Z,40.70
2022-07-28T17:04:21.132Z,39.90
2022-07-28T17:06:48.941Z,39.57
2022-07-28T17:09:17.005Z,40.13
2022-07-28T17:11:46.036Z,40.83
2022-07-28T17:14:13.857Z,41.72
2022-07-28T17:16:41.689Z,42.28
2022-07-28T17:19:09.351Z,42.63
2022-07-28T17:21:37.328Z,42.86
2022-07-28T17:24:05.589Z,43.52
2022-07-28T17:29:23.449Z,44.12
2022-07-28T17:31:51.596Z,43.80
2022-07-28T17:34:22.009Z,41.93
2022-07-28T17:36:50.399Z,41.88
2022-07-28T17:39:18.157Z,41.14
2022-07-28T17:41:45.816Z,40.84
2022-07-28T17:44:13.730Z,40.42
2022-07-28T17:46:43.017Z,39.77
2022-07-28T17:49:10.859Z,38.80
2022-07-28T17:51:38.453Z,38.34
2022-07-28T17:54:06.486Z,37.99
2022-07-28T17:56:36.926Z,37.79
2022-07-28T17:59:05.967Z,37.46
2022-07-28T18:01:33.620Z,37.40
2022-07-28T18:04:02.671Z,37.64
2022-07-28T18:06:32.184Z,37.43
2022-07-28T18:09:06.323Z,36.78
2022-07-28T18:11:37.591Z,36.36
2022-07-28T18:14:24.315Z,36.02
2022-07-28T18:16:52.109Z,35.60
2022-07-28T18:19:21.234Z,35.01
2022-07-28T18:21:49.451Z,34.41
2022-07-28T18:24:17.929Z,34.00
2022-07-28T18:26:46.086Z,33.55
2022-07-28T18:29:14.490Z,33.20
2022-07-28T18:31:46.590Z,32.79
2022-07-28T18:34:15.624Z,32.29
2022-07-28T18:36:45.799Z,31.89
2022-07-28T18:39:13.621Z,31.44
2022-07-28T18:41:46.653Z,31.16
2022-07-28T18:44:16.066Z,30.88
2022-07-28T18:46:44.312Z,30.64
2022-07-28T18:49:12.190Z,30.42
2022-07-28T18:51:44.990Z,30.21
2022-07-28T18:54:20.018Z,30.07
2022-07-28T18:56:49.721Z,29.86
2022-07-28T18:59:17.556Z,29.68
2022-07-28T19:01:45.388Z,29.48
2022-07-28T19:04:13.861Z,29.30
2022-07-28T19:06:43.072Z,29.10
2022-07-28T19:09:10.856Z,29.03
2022-07-28T19:11:45.381Z,28.95
2022-07-28T19:14:14.153Z,28.81
2022-07-28T19:16:41.945Z,28.70
2022-07-28T19:19:09.921Z,28.55
2022-07-28T19:21:37.641Z,28.45
2022-07-28T19:24:10.995Z,28.29
2022-07-28T19:26:40.508Z,28.14
2022-07-28T19:29:08.877Z,28.03
2022-07-28T19:31:37.092Z,27.89
2022-07-28T19:34:05.503Z,27.76
2022-07-28T19:36:33.236Z,27.63
2022-07-28T19:39:00.991Z,27.53
2022-07-28T19:41:31.211Z,27.43
2022-07-28T19:44:00.798Z,27.30
2022-07-28T19:46:28.641Z,27.14
2022-07-28T19:48:56.692Z,27.05
2022-07-28T19:51:24.907Z,26.93
2022-07-28T19:53:52.647Z,26.83
2022-07-28T19:56:20.279Z,26.75
2022-07-28T19:58:48.027Z,26.67
2022-07-28T20:01:18.005Z,26.55
2022-07-28T20:04:01.223Z,26.43
2022-07-28T20:06:30.981Z,26.29
2022-07-28T20:08:59.648Z,26.22
2022-07-28T20:11:27.558Z,26.05
2022-07-28T20:13:55.279Z,25.90
2022-07-28T20:16:24.622Z,25.81
2022-07-28T20:18:52.625Z,25.66
2022-07-28T20:21:21.397Z,25.55
2022-07-28T20:23:49.419Z,25.43
2022-07-28T20:26:18.542Z,25.28
2022-07-28T20:28:52.087Z,25.12
2022-07-28T20:31:21.073Z,25.03
2022-07-28T20:33:50.382Z,25.00
2022-07-28T20:36:18.065Z,24.92
2022-07-28T20:38:46.121Z,24.81
2022-07-28T20:41:14.056Z,24.69
2022-07-28T20:43:41.702Z,24.63
2022-07-28T20:46:09.627Z,24.54
2022-07-28T20:48:37.375Z,24.50
2022-07-28T20:51:06.471Z,24.40
2022-07-28T20:53:34.572Z,23.96
2022-07-28T20:56:02.187Z,23.96
2022-07-28T20:58:30.119Z,23.90
2022-07-28T21:00:57.935Z,23.90
2022-07-28T21:03:25.951Z,23.90
2022-07-28T21:05:53.919Z,23.95
2022-07-28T21:08:24.295Z,24.06
2022-07-28T21:10:52.116Z,24.16
2022-07-28T21:13:19.929Z,24.20
2022-07-28T21:15:48.345Z,24.28
2022-07-28T21:18:17.383Z,24.32
2022-07-28T21:20:45.357Z,24.35
2022-07-28T21:23:13.237Z,24.37
2022-07-28T21:25:45.152Z,24.37
2022-07-28T21:28:31.082Z,24.40
2022-07-28T21:30:58.754Z,24.38
2022-07-28T21:33:26.508Z,24.34
2022-07-28T21:35:54.265Z,24.31
2022-07-28T21:38:23.021Z,24.29
2022-07-28T21:40:52.129Z,24.28
2022-07-28T21:43:20.184Z,24.26
2022-07-28T21:45:48.809Z,24.14
2022-07-28T21:48:19.228Z,24.06
2022-07-28T21:50:47.277Z,23.95
2022-07-28T21:53:17.321Z,23.96
2022-07-28T21:58:14.450Z,23.83
2022-07-28T22:00:42.439Z,23.80
2022-07-28T22:03:10.134Z,23.76
2022-07-28T22:05:38.336Z,23.72
2022-07-28T22:08:06.109Z,23.66
2022-07-28T22:10:33.709Z,23.62
2022-07-28T22:13:01.335Z,23.60
2022-07-28T22:15:30.426Z,23.53
2022-07-28T22:17:58.020Z,23.50
2022-07-28T22:20:25.814Z,23.46
2022-07-28T22:22:55.052Z,23.47
2022-07-28T22:25:22.856Z,23.29
2022-07-28T22:27:50.496Z,23.24
2022-07-28T22:30:18.349Z,23.23
2022-07-28T22:32:47.396Z,23.21
2022-07-28T22:35:15.076Z,23.16
2022-07-28T22:37:42.685Z,23.12
2022-07-28T22:40:11.842Z,23.09
2022-07-28T22:42:39.562Z,23.03
2022-07-28T22:45:08.179Z,23.01
2022-07-28T22:47:35.784Z,22.92
2022-07-28T22:50:05.644Z,22.90
2022-07-28T22:52:33.596Z,22.82
2022-07-28T22:55:01.238Z,22.79
2022-07-28T22:57:28.909Z,22.77
2022-07-28T22:59:57.061Z,22.78
2022-07-28T23:02:25.744Z,22.81
2022-07-28T23:04:53.993Z,22.82
2022-07-28T23:07:35.263Z,22.83
2022-07-28T23:10:12.003Z,22.74
2022-07-28T23:12:39.632Z,22.70
2022-07-28T23:15:08.176Z,22.66
2022-07-28T23:17:35.790Z,22.64
2022-07-28T23:20:03.641Z,22.57
2022-07-28T23:22:32.553Z,22.57
2022-07-28T23:25:00.865Z,22.54
2022-07-28T23:27:28.571Z,22.51
2022-07-28T23:29:56.505Z,22.57
2022-07-28T23:32:24.133Z,22.55
2022-07-28T23:34:51.744Z,22.56
2022-07-28T23:37:19.370Z,22.54
2022-07-28T23:39:48.529Z,22.51
2022-07-28T23:42:16.646Z,22.50
2022-07-28T23:44:44.294Z,22.47
2022-07-28T23:47:12.013Z,22.41
2022-07-28T23:49:39.692Z,22.38
2022-07-28T23:52:07.320Z,22.32
2022-07-28T23:54:34.930Z,22.30
2022-07-28T23:57:04.001Z,22.27
2022-07-28T23:59:32.125Z,22.30
